createdAt,value
2023-04-21T03:59:01.496Z,1009.95
2023-04-21T04:00:01.568Z,1009.97
2023-04-21T04:01:01.471Z,1009.98
2023-04-21T04:02:01.513Z,1010.02
2023-04-21T04:03:01.607Z,1010.01
2023-04-21T04:04:01.617Z,1010.00
2023-04-21T04:05:01.477Z,1009.95
2023-04-21T04:06:01.439Z,1009.94
2023-04-21T04:07:01.398Z,1009.98
2023-04-21T04:08:01.402Z,1009.95
2023-04-21T04:09:01.420Z,1009.94
2023-04-21T04:10:01.416Z,1009.94
2023-04-21T04:11:01.433Z,1010.00
2023-04-21T04:12:01.347Z,1010.00
2023-04-21T04:13:01.337Z,1010.00
2023-04-21T04:14:01.373Z,1010.01
2023-04-21T04:15:01.610Z,1010.05
2023-04-21T04:16:01.489Z,1009.99
2023-04-21T04:17:01.353Z,1009.99
2023-04-21T04:18:01.323Z,1009.95
2023-04-21T04:19:01.339Z,1009.99
2023-04-21T04:20:01.327Z,1009.97
2023-04-21T04:21:01.310Z,1009.99
2023-04-21T04:22:01.378Z,1009.99
2023-04-21T04:23:01.300Z,1010.01
2023-04-21T04:24:01.308Z,1009.98
2023-04-21T04:25:01.335Z,1010.03
2023-04-21T04:26:01.348Z,1010.02
2023-04-21T04:27:01.355Z,1009.99
2023-04-21T04:28:01.300Z,1009.99
2023-04-21T04:29:01.350Z,1009.96
2023-04-21T04:30:01.289Z,1009.98
2023-04-21T04:31:01.411Z,1009.94
2023-04-21T04:32:01.287Z,1009.96
2023-04-21T04:33:01.267Z,1009.94
2023-04-21T04:34:01.270Z,1009.98
2023-04-21T04:35:01.248Z,1009.94
2023-04-21T04:36:01.288Z,1009.95
2023-04-21T04:37:01.234Z,1009.95
2023-04-21T04:38:01.240Z,1009.91
2023-04-21T04:39:01.228Z,1009.93
2023-04-21T04:40:01.250Z,1009.92
2023-04-21T04:41:01.234Z,1009.93
2023-04-21T04:42:01.295Z,1009.90
2023-04-21T04:43:01.222Z,1009.89
2023-04-21T04:44:01.228Z,1009.88
2023-04-21T04:45:01.215Z,1009.92
2023-04-21T04:46:01.203Z,1009.90
2023-04-21T04:47:01.372Z,1009.86
2023-04-21T04:48:01.281Z,1009.86
2023-04-21T04:49:01.212Z,1009.82
2023-04-21T04:50:01.193Z,1009.85
2023-04-21T04:51:01.174Z,1009.87
2023-04-21T04:52:01.191Z,1009.84
2023-04-21T04:53:01.216Z,1009.83
2023-04-21T04:54:01.186Z,1009.85
2023-04-21T04:55:01.171Z,1009.84
2023-04-21T04:56:02.080Z,1009.92
2023-04-21T04:57:01.178Z,1009.90
2023-04-21T04:58:01.219Z,1009.92
2023-04-21T04:59:01.202Z,1009.98
2023-04-21T05:00:01.251Z,1009.97
2023-04-21T05:01:01.158Z,1010.00
2023-04-21T05:02:01.262Z,1010.00
2023-04-21T05:03:01.433Z,1009.98
2023-04-21T05:04:01.287Z,1009.99
2023-04-21T05:05:01.263Z,1010.00
2023-04-21T05:06:01.135Z,1010.02
2023-04-21T05:07:01.143Z,1009.99
2023-04-21T05:08:01.153Z,1010.03
2023-04-21T05:09:01.139Z,1010.05
2023-04-21T05:10:01.133Z,1010.04
2023-04-21T05:11:01.133Z,1010.06
2023-04-21T05:12:01.114Z,1010.08
2023-04-21T05:13:01.119Z,1010.08
2023-04-21T05:14:01.114Z,1010.05
2023-04-21T05:15:01.131Z,1010.07
2023-04-21T05:16:01.107Z,1010.05
2023-04-21T05:17:01.228Z,1010.06
2023-04-21T05:18:01.171Z,1010.08
2023-04-21T05:19:01.112Z,1010.06
2023-04-21T05:20:01.103Z,1010.02
2023-04-21T05:21:01.083Z,1010.07
2023-04-21T05:22:01.105Z,1010.04
2023-04-21T05:23:01.087Z,1010.09
2023-04-21T05:24:01.174Z,1010.07
2023-04-21T05:25:01.070Z,1010.10
2023-04-21T05:26:04.017Z,1010.10
2023-04-21T05:27:01.081Z,1010.09
2023-04-21T05:28:01.070Z,1010.11
2023-04-21T05:29:01.128Z,1010.10
2023-04-21T05:30:01.079Z,1010.17
2023-04-21T05:31:01.056Z,1010.18
2023-04-21T05:32:01.098Z,1010.16
2023-04-21T05:33:01.050Z,1010.19
2023-04-21T05:34:01.035Z,1010.18
2023-04-21T05:35:01.086Z,1010.17
2023-04-21T05:36:01.070Z,1010.18
2023-04-21T05:37:01.085Z,1010.15
2023-04-21T05:38:01.054Z,1010.13
2023-04-21T05:39:01.060Z,1010.15
2023-04-21T05:40:01.053Z,1010.15
2023-04-21T05:41:01.098Z,1010.14
2023-04-21T05:42:01.034Z,1010.15
2023-04-21T05:43:01.056Z,1010.21
2023-04-21T05:44:01.117Z,1010.22
2023-04-21T05:45:01.086Z,1010.19
2023-04-21T05:46:01.210Z,1010.25
2023-04-21T05:47:01.033Z,1010.26
2023-04-21T05:48:01.088Z,1010.29
2023-04-21T05:49:01.005Z,1010.29
2023-04-21T05:50:01.077Z,1010.29
2023-04-21T05:51:01.366Z,1010.28
2023-04-21T05:52:01.141Z,1010.34
2023-04-21T05:53:01.244Z,1010.29
2023-04-21T05:54:00.994Z,1010.31
2023-04-21T05:55:01.010Z,1010.31
2023-04-21T05:56:01.030Z,1010.36
2023-04-21T05:57:01.203Z,1010.32
2023-04-21T05:58:00.992Z,1010.31
2023-04-21T05:59:01.073Z,1010.28
2023-04-21T06:00:00.971Z,1010.31
2023-04-21T06:01:01.631Z,1010.24
2023-04-21T06:02:01.023Z,1010.23
2023-04-21T06:03:01.065Z,1010.20
2023-04-21T06:04:01.202Z,1010.24
2023-04-21T06:05:01.227Z,1010.28
2023-04-21T06:06:00.957Z,1010.29
2023-04-21T06:07:00.958Z,1010.34
2023-04-21T06:08:00.963Z,1010.32
2023-04-21T06:09:00.925Z,1010.30
2023-04-21T06:10:00.957Z,1010.30
2023-04-21T06:11:00.922Z,1010.28
2023-04-21T06:12:00.901Z,1010.32
2023-04-21T06:13:00.954Z,1010.27
2023-04-21T06:14:00.907Z,1010.21
2023-04-21T06:15:00.924Z,1010.25
2023-04-21T06:16:00.967Z,1010.20
2023-04-21T06:17:00.906Z,1010.17
2023-04-21T06:18:01.127Z,1010.17
2023-04-21T06:19:00.948Z,1010.14
2023-04-21T06:20:00.883Z,1010.16
2023-04-21T06:21:00.902Z,1010.18
2023-04-21T06:22:00.922Z,1010.14
2023-04-21T06:23:00.941Z,1010.13
2023-04-21T06:24:00.882Z,1010.18
2023-04-21T06:25:00.909Z,1010.17
2023-04-21T06:26:01.057Z,1010.16
2023-04-21T06:27:00.868Z,1010.11
2023-04-21T06:28:00.912Z,1010.12
2023-04-21T06:29:00.881Z,1010.13
2023-04-21T06:30:00.923Z,1010.15
2023-04-21T06:31:00.862Z,1010.17
2023-04-21T06:32:00.942Z,1010.18
2023-04-21T06:33:00.941Z,1010.20
2023-04-21T06:34:00.857Z,1010.21
2023-04-21T06:35:00.842Z,1010.07
2023-04-21T06:36:00.851Z,1010.18
2023-04-21T06:37:00.849Z,1010.20
2023-04-21T06:38:00.848Z,1010.21
2023-04-21T06:39:00.997Z,1010.24
2023-04-21T06:41:33.442Z,1010.22
2023-04-21T06:42:33.442Z,1010.19
2023-04-21T06:43:33.436Z,1010.22
2023-04-21T06:44:33.406Z,1010.19
2023-04-21T06:45:33.446Z,1010.19
2023-04-21T06:46:33.455Z,1010.13
2023-04-21T06:47:33.433Z,1010.12
2023-04-21T06:48:33.392Z,1010.13
2023-04-21T06:49:33.507Z,1010.09
2023-04-21T06:50:33.406Z,1010.06
2023-04-21T06:51:33.394Z,1010.11
2023-04-21T06:52:33.527Z,1010.08
2023-04-21T06:53:33.404Z,1010.12
2023-04-21T06:54:33.453Z,1010.05
2023-04-21T06:55:33.399Z,1010.08
2023-04-21T06:56:33.402Z,1010.06
2023-04-21T06:57:33.410Z,1010.04
2023-04-21T06:58:33.447Z,1010.07
2023-04-21T06:59:33.393Z,1010.02
2023-04-21T07:00:33.518Z,1010.01
2023-04-21T07:01:33.413Z,1010.06
2023-04-21T07:02:33.586Z,1010.01
2023-04-21T07:03:33.500Z,1010.00
2023-04-21T07:04:33.507Z,1010.02
2023-04-21T07:05:33.387Z,1010.02
2023-04-21T07:06:33.410Z,1010.00
2023-04-21T07:07:33.395Z,1010.04
2023-04-21T07:08:33.385Z,1010.11
2023-04-21T07:09:33.380Z,1010.07
2023-04-21T07:10:33.436Z,1010.03
2023-04-21T07:11:33.386Z,1010.00
2023-04-21T07:12:33.524Z,1010.00
2023-04-21T07:13:33.364Z,1009.97
2023-04-21T07:14:33.361Z,1009.96
2023-04-21T07:15:33.387Z,1009.94
2023-04-21T07:16:33.384Z,1009.94
2023-04-21T07:17:33.530Z,1009.93
2023-04-21T07:18:33.378Z,1009.90
2023-04-21T07:19:33.392Z,1009.90
2023-04-21T07:20:33.399Z,1009.85
2023-04-21T07:21:33.395Z,1009.89
2023-04-21T07:22:33.401Z,1009.88
2023-04-21T07:23:33.361Z,1009.94
2023-04-21T07:24:33.357Z,1009.93
2023-04-21T07:25:33.414Z,1009.94
2023-04-21T07:26:33.695Z,1009.96
2023-04-21T07:27:33.349Z,1009.95
2023-04-21T07:28:33.359Z,1009.98
2023-04-21T07:29:33.370Z,1009.98
2023-04-21T07:30:33.369Z,1010.00
2023-04-21T07:31:33.638Z,1009.98
2023-04-21T07:32:33.364Z,1009.97
2023-04-21T07:33:33.372Z,1009.96
2023-04-21T07:34:33.473Z,1010.01
2023-04-21T07:35:33.370Z,1009.97
2023-04-21T07:36:33.348Z,1009.99
2023-04-21T07:37:33.452Z,1009.99
2023-04-21T07:38:34.735Z,1009.97
2023-04-21T07:39:33.364Z,1009.98
2023-04-21T07:40:33.323Z,1009.98
2023-04-21T07:41:33.414Z,1009.96
2023-04-21T07:42:33.495Z,1009.96
2023-04-21T07:43:33.323Z,1009.99
2023-04-21T07:44:33.347Z,1009.98
2023-04-21T07:45:33.338Z,1009.93
2023-04-21T07:46:33.349Z,1009.99
2023-04-21T07:47:34.294Z,1010.02
2023-04-21T07:48:33.414Z,1009.93
2023-04-21T07:49:33.379Z,1009.94
2023-04-21T07:50:33.386Z,1009.91
2023-04-21T07:51:33.917Z,1009.94
2023-04-21T07:52:33.381Z,1009.89
2023-04-21T07:53:33.314Z,1009.88
2023-04-21T07:54:33.536Z,1009.97
2023-04-21T07:55:33.361Z,1009.90
2023-04-21T07:56:33.416Z,1009.88
2023-04-21T07:57:33.826Z,1009.92
2023-04-21T07:58:33.329Z,1009.93
2023-04-21T07:59:33.407Z,1009.93
2023-04-21T08:00:33.358Z,1009.89
2023-04-21T08:01:33.318Z,1009.91
2023-04-21T08:02:33.395Z,1009.96
2023-04-21T08:03:33.654Z,1009.94
2023-04-21T08:04:33.837Z,1009.93
2023-04-21T08:05:35.751Z,1009.89
2023-04-21T08:06:33.521Z,1009.90
2023-04-21T08:07:33.494Z,1009.87
2023-04-21T08:08:33.363Z,1009.91
2023-04-21T08:09:33.318Z,1009.85
2023-04-21T08:10:33.368Z,1009.87
2023-04-21T08:11:33.313Z,1009.85
2023-04-21T08:12:34.118Z,1009.87
2023-04-21T08:13:33.415Z,1009.87
2023-04-21T08:14:33.415Z,1009.81
2023-04-21T08:15:33.357Z,1009.82
2023-04-21T08:16:33.558Z,1009.84
2023-04-21T08:17:33.445Z,1009.84
2023-04-21T08:18:33.326Z,1009.87
2023-04-21T08:19:33.338Z,1009.84
2023-04-21T08:20:33.326Z,1009.81
2023-04-21T08:21:33.438Z,1009.82
2023-04-21T08:22:33.443Z,1009.77
2023-04-21T08:23:33.469Z,1009.84
2023-04-21T08:24:33.301Z,1009.75
2023-04-21T08:25:33.330Z,1009.74
2023-04-21T08:26:33.364Z,1009.79
2023-04-21T08:27:33.366Z,1009.71
2023-04-21T08:28:33.349Z,1009.71
2023-04-21T08:29:33.410Z,1009.66
2023-04-21T08:30:33.445Z,1009.71
2023-04-21T08:31:33.354Z,1009.64
2023-04-21T08:32:33.334Z,1009.63
2023-04-21T08:33:33.342Z,1009.65
2023-04-21T08:34:33.344Z,1009.66
2023-04-21T08:35:33.294Z,1009.63
2023-04-21T08:36:33.284Z,1009.67
2023-04-21T08:37:33.288Z,1009.68
2023-04-21T08:38:33.297Z,1009.69
2023-04-21T08:39:33.304Z,1009.70
2023-04-21T08:40:33.313Z,1009.70
2023-04-21T08:41:33.295Z,1009.66
2023-04-21T08:42:33.316Z,1009.70
2023-04-21T08:43:33.416Z,1009.76
2023-04-21T08:44:33.347Z,1009.67
2023-04-21T08:45:33.355Z,1009.70
2023-04-21T08:46:33.352Z,1009.68
2023-04-21T08:47:33.550Z,1009.73
2023-04-21T08:48:33.290Z,1009.68
2023-04-21T08:49:33.292Z,1009.66
2023-04-21T08:50:33.281Z,1009.67
2023-04-21T08:51:33.352Z,1009.66
2023-04-21T08:52:33.284Z,1009.65
2023-04-21T08:53:33.313Z,1009.65
2023-04-21T08:54:33.302Z,1009.68
2023-04-21T08:55:33.291Z,1009.64
2023-04-21T08:56:33.281Z,1009.61
2023-04-21T08:57:33.341Z,1009.60
2023-04-21T08:58:33.311Z,1009.64
2023-04-21T08:59:33.291Z,1009.61
2023-04-21T09:00:33.355Z,1009.61
2023-04-21T09:01:33.355Z,1009.67
2023-04-21T09:02:33.411Z,1009.61
2023-04-21T09:03:33.543Z,1009.55
2023-04-21T09:04:33.512Z,1009.61
2023-04-21T09:05:33.770Z,1009.61
2023-04-21T09:06:33.398Z,1009.62
2023-04-21T09:07:33.287Z,1009.58
2023-04-21T09:08:33.287Z,1009.59
2023-04-21T09:09:33.388Z,1009.56
2023-04-21T09:13:05.904Z,1009.61
2023-04-21T09:14:05.884Z,1009.61
2023-04-21T09:15:05.889Z,1009.64
2023-04-21T09:16:08.470Z,1009.59
2023-04-21T09:17:06.153Z,1009.56
2023-04-21T09:18:05.928Z,1009.56
2023-04-21T09:19:05.900Z,1009.56
2023-04-21T09:20:05.922Z,1009.63
2023-04-21T09:21:05.983Z,1009.62
2023-04-21T09:22:05.933Z,1009.64
2023-04-21T09:23:05.895Z,1009.62
2023-04-21T09:24:05.944Z,1009.63
2023-04-21T09:25:05.919Z,1009.62
2023-04-21T09:26:06.060Z,1009.58
2023-04-21T09:27:06.068Z,1009.67
2023-04-21T09:28:05.911Z,1009.58
2023-04-21T09:29:05.981Z,1009.52
2023-04-21T09:30:05.876Z,1009.55
2023-04-21T09:31:05.958Z,1009.54
2023-04-21T09:32:05.992Z,1009.51
2023-04-21T09:33:13.345Z,1009.50
2023-04-21T09:34:05.984Z,1009.51
2023-04-21T09:35:06.023Z,1009.51
2023-04-21T09:36:05.914Z,1009.50
2023-04-21T09:37:05.931Z,1009.51
2023-04-21T09:38:05.947Z,1009.47
2023-04-21T09:40:05.902Z,1009.49
2023-04-21T09:41:05.958Z,1009.56
2023-04-21T09:42:05.958Z,1009.47
2023-04-21T09:43:05.922Z,1009.44
2023-04-21T09:44:05.888Z,1009.46
2023-04-21T09:46:06.300Z,1009.41
2023-04-21T09:47:05.990Z,1009.32
2023-04-21T09:48:06.741Z,1009.38
2023-04-21T09:49:05.885Z,1009.33
2023-04-21T09:50:06.948Z,1009.36
2023-04-21T09:52:18.464Z,1009.30
2023-04-21T09:53:05.914Z,1009.35
2023-04-21T09:54:12.964Z,1009.33
2023-04-21T09:55:05.944Z,1009.34
2023-04-21T09:56:05.894Z,1009.29
2023-04-21T09:57:05.944Z,1009.31
2023-04-21T09:58:05.911Z,1009.27
2023-04-21T09:59:05.952Z,1009.23
2023-04-21T10:00:05.919Z,1009.23
2023-04-21T10:01:05.927Z,1009.23
2023-04-21T10:02:06.083Z,1009.21
2023-04-21T10:13:18.100Z,1009.07
2023-04-21T10:14:18.177Z,1009.07
2023-04-21T10:15:18.082Z,1009.11
2023-04-21T10:16:18.073Z,1009.12
2023-04-21T10:17:18.351Z,1009.11
2023-04-21T10:18:18.038Z,1009.05
2023-04-21T10:19:18.303Z,1009.12
2023-04-21T10:20:18.039Z,1009.09
2023-04-21T10:21:18.038Z,1009.10
2023-04-21T10:22:18.060Z,1009.12
2023-04-21T10:23:18.047Z,1009.00
2023-04-21T10:24:18.305Z,1009.02
2023-04-21T10:25:18.024Z,1008.98
2023-04-21T10:26:18.076Z,1009.01
2023-04-21T10:27:18.031Z,1009.03
2023-04-21T10:28:18.086Z,1008.99
2023-04-21T10:29:18.447Z,1008.94
2023-04-21T10:30:18.205Z,1009.00
2023-04-21T10:31:18.208Z,1008.90
2023-04-21T10:32:18.074Z,1008.91
2023-04-21T10:33:18.090Z,1008.87
2023-04-21T10:34:18.233Z,1008.81
2023-04-21T10:35:18.097Z,1008.86
2023-04-21T10:36:18.044Z,1008.81
2023-04-21T10:37:18.090Z,1008.77
2023-04-21T10:38:18.053Z,1008.80
2023-04-21T10:39:18.242Z,1008.82
2023-04-21T10:40:18.059Z,1008.86
2023-04-21T10:41:18.063Z,1008.82
2023-04-21T10:42:18.105Z,1008.80
2023-04-21T10:43:18.044Z,1008.71
2023-04-21T10:44:18.446Z,1008.72
2023-04-21T10:45:18.110Z,1008.75
2023-04-21T10:46:18.107Z,1008.75
2023-04-21T10:47:18.128Z,1008.66
2023-04-21T10:48:18.085Z,1008.62
2023-04-21T10:49:18.059Z,1008.57
2023-04-21T10:50:18.092Z,1008.56
2023-04-21T10:51:18.072Z,1008.62
2023-04-21T10:52:18.085Z,1008.54
2023-04-21T10:53:18.087Z,1008.58
2023-04-21T10:54:18.412Z,1008.53
2023-04-21T10:55:18.148Z,1008.51
2023-04-21T10:56:18.079Z,1008.46
2023-04-21T10:57:18.092Z,1008.49
2023-04-21T10:58:18.122Z,1008.46
2023-04-21T10:59:18.093Z,1008.43
2023-04-21T11:00:18.072Z,1008.44
2023-04-21T11:01:18.137Z,1008.25
2023-04-21T11:02:18.313Z,1008.22
2023-04-21T11:03:18.381Z,1008.33
2023-04-21T11:04:18.354Z,1008.27
2023-04-21T11:05:18.110Z,1008.26
2023-04-21T11:06:18.107Z,1008.30
2023-04-21T11:07:18.097Z,1008.24
2023-04-21T11:08:18.120Z,1008.21
2023-04-21T11:09:18.184Z,1008.18
2023-04-21T11:10:18.143Z,1008.21
2023-04-21T11:11:18.125Z,1008.12
2023-04-21T11:12:18.228Z,1008.15
2023-04-21T11:13:18.237Z,1008.23
2023-04-21T11:14:18.312Z,1008.18
2023-04-21T11:15:20.094Z,1008.13
2023-04-21T11:16:18.221Z,1008.15
2023-04-21T11:17:18.366Z,1008.21
2023-04-21T11:18:18.785Z,1008.16
2023-04-21T11:19:18.175Z,1008.16
2023-04-21T11:20:18.157Z,1008.14
2023-04-21T11:21:18.494Z,1008.07
2023-04-21T11:22:18.194Z,1008.04
2023-04-21T11:23:18.151Z,1008.00
2023-04-21T11:24:18.440Z,1008.05
2023-04-21T11:25:18.166Z,1008.02
2023-04-21T11:26:18.214Z,1008.00
2023-04-21T11:27:18.172Z,1007.99
2023-04-21T11:28:18.190Z,1007.95
2023-04-21T11:29:18.164Z,1007.91
2023-04-21T11:30:18.215Z,1007.92
2023-04-21T11:31:18.226Z,1007.96
2023-04-21T11:32:18.186Z,1007.92
2023-04-21T11:33:18.253Z,1007.84
2023-04-21T11:34:18.365Z,1007.77
2023-04-21T11:35:18.230Z,1007.87
2023-04-21T11:36:18.214Z,1007.77
2023-04-21T11:37:18.192Z,1007.79
2023-04-21T11:38:18.216Z,1007.77
2023-04-21T11:39:20.176Z,1007.85
2023-04-21T11:40:18.234Z,1007.79
2023-04-21T11:41:18.213Z,1007.86
2023-04-21T11:42:18.216Z,1007.78
2023-04-21T11:43:18.226Z,1007.81
2023-04-21T11:44:18.224Z,1007.79
2023-04-21T11:45:20.491Z,1007.66
2023-04-21T11:46:18.337Z,1007.70
2023-04-21T11:47:18.254Z,1007.71
2023-04-21T11:48:18.262Z,1007.78
2023-04-21T11:49:18.279Z,1007.69
2023-04-21T11:50:18.251Z,1007.72
2023-04-21T11:51:20.017Z,1007.71
2023-04-21T11:52:18.278Z,1007.70
2023-04-21T11:53:18.285Z,1007.66
2023-04-21T11:54:18.305Z,1007.65
2023-04-21T11:55:18.294Z,1007.59
2023-04-21T11:56:18.272Z,1007.60
2023-04-21T11:57:18.306Z,1007.69
2023-04-21T11:58:18.346Z,1007.59
2023-04-21T11:59:18.304Z,1007.62
2023-04-21T12:00:18.294Z,1007.63
2023-04-21T12:01:18.307Z,1007.56
2023-04-21T12:02:18.409Z,1007.58
2023-04-21T12:03:18.480Z,1007.55
2023-04-21T12:04:18.469Z,1007.56
2023-04-21T12:05:18.352Z,1007.55
2023-04-21T12:06:18.385Z,1007.44
2023-04-21T12:07:18.367Z,1007.56
2023-04-21T12:08:18.348Z,1007.56
2023-04-21T12:09:18.344Z,1007.55
2023-04-21T12:10:18.324Z,1007.54
2023-04-21T12:11:18.387Z,1007.54
2023-04-21T12:12:18.361Z,1007.52
2023-04-21T12:13:18.388Z,1007.44
2023-04-21T12:14:18.378Z,1007.54
2023-04-21T12:15:18.394Z,1007.63
2023-04-21T12:16:18.414Z,1007.46
2023-04-21T12:17:18.399Z,1007.42
2023-04-21T12:18:18.419Z,1007.45
2023-04-21T12:19:18.379Z,1007.42
2023-04-21T12:20:18.411Z,1007.49
2023-04-21T12:21:18.407Z,1007.46
2023-04-21T12:22:18.475Z,1007.39
2023-04-21T12:23:18.407Z,1007.34
2023-04-21T12:24:18.414Z,1007.36
2023-04-21T12:25:18.524Z,1007.33
2023-04-21T12:26:18.437Z,1007.37
2023-04-21T12:27:18.485Z,1007.33
2023-04-21T12:28:18.437Z,1007.30
2023-04-21T12:29:18.452Z,1007.24
2023-04-21T12:30:18.466Z,1007.22
2023-04-21T12:31:18.476Z,1007.21
2023-04-21T12:32:19.183Z,1007.19
2023-04-21T12:33:18.565Z,1007.19
2023-04-21T12:34:18.465Z,1007.17
2023-04-21T12:35:18.457Z,1007.25
2023-04-21T12:36:18.487Z,1007.20
2023-04-21T12:37:18.525Z,1007.16
2023-04-21T12:38:18.489Z,1007.23
2023-04-21T12:39:18.491Z,1007.20
2023-04-21T12:40:18.497Z,1007.11
2023-04-21T12:41:18.506Z,1007.00
2023-04-21T12:42:18.537Z,1007.04
2023-04-21T12:43:18.506Z,1007.15
2023-04-21T12:44:18.514Z,1007.05
2023-04-21T12:45:18.531Z,1007.06
2023-04-21T12:46:18.550Z,1007.09
2023-04-21T12:47:18.547Z,1007.01
2023-04-21T12:48:18.582Z,1006.97
2023-04-21T12:49:18.555Z,1007.04
2023-04-21T12:50:18.596Z,1006.94
2023-04-21T12:51:18.612Z,1006.92
2023-04-21T12:52:18.586Z,1006.98
2023-04-21T12:53:18.606Z,1006.89
2023-04-21T12:54:18.585Z,1006.92
2023-04-21T12:55:18.595Z,1006.89
2023-04-21T12:56:18.599Z,1006.86
2023-04-21T12:57:18.632Z,1006.88
2023-04-21T12:58:18.634Z,1006.83
2023-04-21T12:59:18.616Z,1006.75
2023-04-21T13:00:18.631Z,1006.81
2023-04-21T13:01:18.721Z,1006.78
2023-04-21T13:02:18.798Z,1006.79
2023-04-21T13:03:18.737Z,1006.80
2023-04-21T13:04:18.988Z,1006.75
2023-04-21T13:05:18.710Z,1006.88
2023-04-21T13:06:18.671Z,1006.77
2023-04-21T13:07:18.678Z,1006.72
2023-04-21T13:08:18.699Z,1006.72
2023-04-21T13:09:18.750Z,1006.70
2023-04-21T13:10:18.700Z,1006.74
2023-04-21T13:11:18.736Z,1006.78
2023-04-21T13:12:18.738Z,1006.72
2023-04-21T13:13:18.707Z,1006.70
2023-04-21T13:14:18.766Z,1006.69
2023-04-21T13:15:18.747Z,1006.65
2023-04-21T13:16:18.800Z,1006.58
2023-04-21T13:17:18.892Z,1006.68
2023-04-21T13:18:18.763Z,1006.76
2023-04-21T13:19:18.761Z,1006.69
2023-04-21T13:20:18.783Z,1006.70
2023-04-21T13:21:18.792Z,1006.76
2023-04-21T13:22:18.795Z,1006.68
2023-04-21T13:23:18.785Z,1006.67
2023-04-21T13:24:18.809Z,1006.60
2023-04-21T13:25:18.866Z,1006.61
2023-04-21T13:26:18.831Z,1006.59
2023-04-21T13:27:18.831Z,1006.57
2023-04-21T13:28:18.823Z,1006.58
2023-04-21T13:29:18.860Z,1006.56
2023-04-21T13:30:18.844Z,1006.46
2023-04-21T13:31:18.957Z,1006.50
2023-04-21T13:32:18.872Z,1006.43
2023-04-21T13:33:18.900Z,1006.56
2023-04-21T13:34:18.921Z,1006.44
2023-04-21T13:35:18.882Z,1006.50
2023-04-21T13:36:18.986Z,1006.44
2023-04-21T13:37:18.955Z,1006.41
2023-04-21T13:38:18.908Z,1006.35
2023-04-21T13:40:51.546Z,1006.41
2023-04-21T13:41:53.998Z,1006.38
2023-04-21T13:42:51.521Z,1006.43
2023-04-21T13:43:51.550Z,1006.39
2023-04-21T13:44:51.554Z,1006.38
2023-04-21T13:45:51.605Z,1006.30
2023-04-21T13:46:51.605Z,1006.29
2023-04-21T13:47:51.641Z,1006.36
2023-04-21T13:48:51.677Z,1006.35
2023-04-21T13:49:51.604Z,1006.33
2023-04-21T13:50:51.603Z,1006.34
2023-04-21T13:51:51.656Z,1006.33
2023-04-21T13:52:51.634Z,1006.36
2023-04-21T13:53:51.636Z,1006.33
2023-04-21T13:54:51.626Z,1006.30
2023-04-21T13:55:51.652Z,1006.31
2023-04-21T13:56:51.701Z,1006.34
2023-04-21T13:57:51.666Z,1006.34
2023-04-21T13:58:51.692Z,1006.21
2023-04-21T13:59:51.675Z,1006.20
2023-04-21T14:00:51.691Z,1006.26
2023-04-21T14:01:51.732Z,1006.15
2023-04-21T14:02:51.881Z,1006.12
2023-04-21T14:03:52.004Z,1006.10
2023-04-21T14:04:51.810Z,1006.13
2023-04-21T14:05:51.860Z,1006.11
2023-04-21T14:06:51.734Z,1006.26
2023-04-21T14:07:51.798Z,1006.08
2023-04-21T14:08:51.765Z,1006.18
2023-04-21T14:09:51.787Z,1006.04
2023-04-21T14:10:51.789Z,1006.15
2023-04-21T14:11:51.788Z,1006.05
2023-04-21T14:12:51.840Z,1006.14
2023-04-21T14:14:04.860Z,1006.07
2023-04-21T14:14:51.862Z,1006.01
2023-04-21T14:15:51.849Z,1006.02
2023-04-21T14:16:51.851Z,1006.09
2023-04-21T14:17:51.879Z,1006.00
2023-04-21T14:18:51.890Z,1005.99
2023-04-21T14:19:54.397Z,1006.02
2023-04-21T14:20:51.874Z,1006.13
2023-04-21T14:21:51.917Z,1005.96
2023-04-21T14:22:51.891Z,1006.00
2023-04-21T14:23:51.883Z,1005.91
2023-04-21T14:24:51.965Z,1005.94
2023-04-21T14:25:53.081Z,1006.00
2023-04-21T14:26:51.921Z,1006.01
2023-04-21T14:27:51.972Z,1005.97
2023-04-21T14:28:51.931Z,1005.92
2023-04-21T14:29:51.930Z,1005.95
2023-04-21T14:30:52.043Z,1005.97
2023-04-21T14:31:52.014Z,1005.94
2023-04-21T14:32:51.978Z,1005.84
2023-04-21T14:33:51.960Z,1005.80
2023-04-21T14:34:51.996Z,1005.90
2023-04-21T14:35:52.012Z,1005.76
2023-04-21T14:36:52.030Z,1005.89
2023-04-21T14:37:53.973Z,1005.74
2023-04-21T14:38:51.994Z,1005.86
2023-04-21T14:39:51.995Z,1005.86
2023-04-21T14:40:52.043Z,1005.81
2023-04-21T14:41:52.226Z,1005.81
2023-04-21T14:42:52.052Z,1005.79
2023-04-21T14:43:52.029Z,1005.75
2023-04-21T14:44:52.095Z,1005.74
2023-04-21T14:45:52.129Z,1005.74
2023-04-21T14:47:05.742Z,1005.75
2023-04-21T14:47:52.147Z,1005.71
2023-04-21T14:48:52.052Z,1005.73
2023-04-21T14:49:53.979Z,1005.77
2023-04-21T14:50:52.095Z,1005.80
2023-04-21T14:51:52.109Z,1005.76
2023-04-21T14:52:52.088Z,1005.72
2023-04-21T14:53:52.134Z,1005.67
2023-04-21T14:54:52.085Z,1005.67
2023-04-21T14:55:54.296Z,1005.68
2023-04-21T14:56:58.092Z,1005.62
2023-04-21T14:57:52.118Z,1005.60
2023-04-21T14:58:52.187Z,1005.64
2023-04-21T14:59:52.159Z,1005.66
2023-04-21T15:00:52.263Z,1005.61
2023-04-21T15:01:52.184Z,1005.58
2023-04-21T15:02:52.213Z,1005.56
2023-04-21T15:03:52.404Z,1005.55
2023-04-21T15:04:52.251Z,1005.65
2023-04-21T15:05:52.262Z,1005.54
2023-04-21T15:06:52.292Z,1005.48
2023-04-21T15:07:52.160Z,1005.42
2023-04-21T15:08:52.245Z,1005.45
2023-04-21T15:09:52.235Z,1005.44
2023-04-21T15:10:52.268Z,1005.52
2023-04-21T15:11:52.241Z,1005.49
2023-04-21T15:12:52.237Z,1005.49
2023-04-21T15:13:52.247Z,1005.38
2023-04-21T15:14:52.256Z,1005.43
2023-04-21T15:15:52.264Z,1005.46
2023-04-21T15:16:52.289Z,1005.44
2023-04-21T15:17:52.358Z,1005.44
2023-04-21T15:18:52.275Z,1005.42
2023-04-21T15:19:52.238Z,1005.40
2023-04-21T15:20:52.274Z,1005.36
2023-04-21T15:21:52.252Z,1005.38
2023-04-21T15:22:52.269Z,1005.34
2023-04-21T15:23:52.267Z,1005.35
2023-04-21T15:24:54.371Z,1005.28
2023-04-21T15:25:52.274Z,1005.31
2023-04-21T15:26:52.311Z,1005.27
2023-04-21T15:27:52.297Z,1005.27
2023-04-21T15:28:52.388Z,1005.30
2023-04-21T15:29:52.320Z,1005.29
2023-04-21T15:30:52.330Z,1005.31
2023-04-21T15:31:52.310Z,1005.24
2023-04-21T15:32:52.392Z,1005.30
2023-04-21T15:33:52.326Z,1005.28
2023-04-21T15:34:52.320Z,1005.19
2023-04-21T15:35:52.346Z,1005.21
2023-04-21T15:36:52.329Z,1005.19
2023-04-21T15:37:52.354Z,1005.26
2023-04-21T15:38:52.359Z,1005.12
2023-04-21T15:39:52.354Z,1005.19
2023-04-21T15:41:00.595Z,1005.04
2023-04-21T15:41:52.433Z,1005.13
2023-04-21T15:42:52.398Z,1005.08
2023-04-21T15:43:52.375Z,1005.11
2023-04-21T15:44:52.350Z,1005.12
2023-04-21T15:45:52.400Z,1005.12
2023-04-21T15:46:52.515Z,1005.12
2023-04-21T15:47:52.560Z,1005.10
2023-04-21T15:48:52.406Z,1005.11
2023-04-21T15:49:52.430Z,1005.10
2023-04-21T15:50:52.394Z,1005.04
2023-04-21T15:51:52.459Z,1005.15
2023-04-21T15:52:52.387Z,1005.01
2023-04-21T15:53:52.387Z,1005.02
2023-04-21T15:54:52.417Z,1005.00
2023-04-21T15:55:52.399Z,1005.11
2023-04-21T15:56:52.490Z,1004.96
2023-04-21T15:57:52.380Z,1005.03
2023-04-21T15:58:52.394Z,1005.01
2023-04-21T15:59:52.399Z,1004.95
2023-04-21T16:00:52.436Z,1004.99
2023-04-21T16:12:20.051Z,1004.84
2023-04-21T16:13:20.046Z,1004.81
2023-04-21T16:14:20.135Z,1004.84
2023-04-21T16:15:24.474Z,1004.85
2023-04-21T16:16:20.133Z,1004.90
2023-04-21T16:17:20.017Z,1004.92
2023-04-21T16:18:20.108Z,1004.87
2023-04-21T16:19:20.072Z,1004.82
2023-04-21T16:20:20.069Z,1004.78
2023-04-21T16:21:20.150Z,1004.81
2023-04-21T16:22:20.051Z,1004.74
2023-04-21T16:23:19.993Z,1004.86
2023-04-21T16:24:20.052Z,1004.79
2023-04-21T16:25:20.121Z,1004.79
2023-04-21T16:26:20.016Z,1004.77
2023-04-21T16:27:20.018Z,1004.70
2023-04-21T16:28:20.113Z,1004.79
2023-04-21T16:29:20.011Z,1004.73
2023-04-21T16:30:20.084Z,1004.74
2023-04-21T16:31:20.063Z,1004.79
2023-04-21T16:32:20.100Z,1004.80
2023-04-21T16:33:19.997Z,1004.77